Terminal Aerodrome Forecast
Issued by NWS Milwaukee/Sullivan, WI

Home | Current Version | Previous Version | Text Only | Print | Product List | Glossary On
Versions: 1 2 3 4 5 6 7 8 9 10 11 12 13 14 15 16 17 18 19 20 21 22 23 24 25
000
FTUS43 KMKX 160336 AAA
TAFMSN
TAF AMD
KMSN 160336Z 1604/1624 20005KT P6SM -SN SCT029 OVC050
     FM160600 VRB03KT P6SM OVC035
     FM161400 11007KT P6SM SCT040 BKN080
     FM161800 10007KT P6SM BKN200=

USA.gov is the U.S. government's official web portal to all federal, state and local government web resources and services.